Relevés horaires Kleine Brogel (Belgique)


Relevés horaires à Kleine Brogel - Dimanche 07 Avr. 2024
Heure UTC1 Température [°C] Vent [km/h] Hum. [%] Pres.4 [hPa] Visi. [Km] Nébu. [octa] Préc.5 [mm] Cond.
2m. Res. Ros. Dir.2 Vit. Moy. Raf.3
23:00 12.8 12.8 12.2 NNO 1.9 -- 3.7 96 1012(-0.2/3h) 20 -- -- NA
22:00 13.1 13.1 12.0 NNO 1.9 -- 5.6 93 1012.2(-0.2/3h) 20 -- -- NA
21:00 13.4 13.4 11.8 SSO 3.7 -- 9.3 90 1013.2(0.5/3h) 9 -- -- Il y a de la pluie faible et continue à la station au moment de l'observation
20:00 16.0 16.0 9.4 NNO 1.9 -- 3.7 65 1012.2(-0.6/3h) 20 -- -- Il y a une bruine modérée et intermittente à la station au moment de l'observation
19:00 16.7 16.7 8.3 NNO 3.7 -- 9.3 58 1012.5(-0.9/3h) 20 -- -- --
18:00 17.3 17.3 7.7 SO 7.4 -- 22.2 53 1012.5(-1.0/3h) 20 -- -- --
17:00 18.2 18.2 7.9 SO 7.4 -- 13.0 51 1012.8(-0.9/3h) 20 -- -- --
16:00 19.0 19.0 6.8 SSO 5.6 -- 16.7 45 1013.5(-1.0/3h) 20 -- -- --
15:00 20.1 20.1 7.2 SSO 11.1 -- 22.2 43 1013.5(-1.3/3h) 20 -- -- --
14:00 21.7 21.7 7.4 SO 13.0 -- 22.2 40 1013.7(-1.1/3h) 20 -- -- --
13:00 20.8 20.8 6.8 SO 11.1 -- 20.4 40 1014.5(-0.6/3h) 20 -- -- --
12:00 20.6 20.6 8.4 SSO 11.1 -- 25.9 45 1014.7(-0.1/3h) 20 -- -- --
11:00 19.7 19.7 9.6 SO 11.1 -- 22.2 52 1014.8(0.2/3h) 20 -- -- --
10:00 17.9 17.8 9.2 SO 13.0 -- 25.9 57 1015.2(1.1/3h) 20 -- -- --
09:00 18.0 18.0 9.3 SSO 11.1 -- 24.1 57 1015(1.3/3h) 19 -- -- --
08:00 17.6 17.4 10.2 SO 13.0 -- 18.5 62 1014.7(2.0/3h) 20 -- -- --
07:00 16.5 16.5 9.1 SO 9.3 -- 16.7 62 1014(1.2/3h) 20 -- -- --
06:00 15.8 15.6 8.3 SSO 9.3 -- 20.4 61 1013.6(0.6/3h) 20 -- trace/12h
NA
05:00 15.8 15.8 7.4 SSO 7.4 -- 14.8 57 1012.7(0.9/3h) 20 -- -- --
04:00 16.2 15.9 7.4 SO 11.1 -- 18.5 56 1012.7(2.5/3h) 20 -- -- NA
03:00 17.0 16.7 9.5 O 13.0 -- 20.4 61 1013.1(3.7/3h) 20 -- -- --
02:00 17.6 17.6 9.9 O 7.4 -- 14.8 61 1011.7(3.1/3h) 20 -- -- --
01:00 18.3 18.3 9.9 OSO 9.3 -- 13.0 58 1010.2(1.7/3h) 20 -- -- --
00:00 19.1 19.1 9.1 SSO 5.6 -- 11.1 52 1009.2(0.3/3h) 20 -- -- --

1 Coordinated Universal Time. Actuellement il est 00:00 locale et 22:00 UTC.

2 Le vent souffle depuis la direction indiquée vers la direction oposée.

3 Les rafales max. sont disponible 40 min après l'heure du relevé.

4 Pour les stations d'altitude (plus de 600m) le géopotentiel du niveau le plus proche de la pression obligatoire est indiqué.

5 Les stations disposant d'un diffuseur peuvent indiquer "trace". Cela signifie que des précipitations ont touchés le sol mais que la quantité est inférieure à 0.1 mm.

Récapitulatif de la journée
Température [°C] Vent [km/h] Ensoleillement4 [h] Precipitations totale5 [mm] Pression [Hpa]
Min1 Max.2 Moy.3 Max. Min Max.
15.6 21.8 0 25.9 0 h 0 min 0 1009.2 1015.2

1 Température minimale relevée entre 18:00 UTC la veille et 18:00 UTC le jour donné.

2 Température maximale relevée entre 06:00 UTC le jour donné et 06:00 UTC le lendemain.

3 Vent moyen de la journée basé sur les relevés horaires.

4 Ensoleillement en heures relevé entre 06:00 UTC la veille et 06:00 UTC le jour donné.

5 Précipitations totales tombées entre 06:00 UTC la jour donné et 06:00 UTC le lendemain.

Graphiques horaires